Terminal Aerodrome Forecast
Issued by NWS

Home | Current Version | Previous Version | Text Only | Print | Product List | Glossary On
Versions: 1 2 3 4 5 6 7 8 9 10 11 12 13 14
000
FTUS45 KSLC 310355 AAB
TAFOGD
TAF AMD
KOGD 310355Z 3104/3124 35010KT P6SM BKN150
     FM310500 31006KT P6SM SCT110 BKN130
     FM310900 15006KT P6SM SCT140
     FM311900 25007KT P6SM FEW100 SCT150=

USA.gov is the U.S. government's official web portal to all federal, state and local government web resources and services.